Time;durP1;ratioP1;P1;durP2;ratioP2;P2;SDS_P1;SDS_P2;PMS_P1;PMS_P2;Temp;Humidity;BMP_temperature;BMP_pressure;BME280_temperature;BME280_humidity;BME280_pressure;Samples;Min_cycle;Max_cycle;Signal;HPM_P1;HPM_P2
2021/04/27 00:00:10;;;;;;;32.50;18.80;;;;;;;0.97;71.01;100216.31;1748053;82;21898;-76
2021/04/27 00:02:45;;;;;;;32.05;19.48;;;;;;;0.96;71.00;100210.69;1755637;81;21085;-76
2021/04/27 00:05:16;;;;;;;30.57;18.85;;;;;;;0.94;70.98;100217.72;1752306;81;21094;-76
2021/04/27 00:07:46;;;;;;;33.63;20.27;;;;;;;0.91;71.04;100215.72;1754730;81;21077;-76
2021/04/27 00:10:16;;;;;;;44.67;23.85;;;;;;;0.88;71.05;100218.00;1733829;81;21090;-76
2021/04/27 00:12:45;;;;;;;41.13;23.18;;;;;;;0.86;71.04;100218.04;1775072;79;21422;-76
2021/04/27 00:15:17;;;;;;;44.13;24.47;;;;;;;0.84;70.99;100224.22;1781283;79;21158;-76
2021/04/27 00:17:45;;;;;;;45.15;25.40;;;;;;;0.81;71.05;100223.91;1798298;79;21509;-75
2021/04/27 00:20:13;;;;;;;40.03;23.40;;;;;;;0.81;71.26;100221.76;1789719;79;21141;-76
2021/04/27 00:22:41;;;;;;;37.40;21.07;;;;;;;0.80;71.33;100220.91;1756858;80;21159;-75
2021/04/27 00:25:12;;;;;;;33.10;19.17;;;;;;;0.80;71.33;100213.57;1775515;79;22345;-76
2021/04/27 00:27:39;;;;;;;34.25;19.92;;;;;;;0.78;71.33;100215.40;1762995;80;21145;-75
2021/04/27 00:30:09;;;;;;;35.20;20.27;;;;;;;0.73;71.37;100219.92;1744963;80;21195;-75
2021/04/27 00:32:36;;;;;;;35.58;19.20;;;;;;;0.69;71.42;100224.88;1763829;80;21083;-75
2021/04/27 00:35:06;;;;;;;33.00;19.42;;;;;;;0.66;71.45;100218.48;1748932;80;21129;-75
2021/04/27 00:37:34;;;;;;;33.80;19.30;;;;;;;0.64;71.42;100219.84;1752384;80;21569;-76
2021/04/27 00:40:07;;;;;;;33.83;18.27;;;;;;;0.61;71.48;100214.78;1763115;79;21128;-76
2021/04/27 00:42:39;;;;;;;35.40;19.37;;;;;;;0.59;71.61;100223.11;1750931;80;21047;-76
2021/04/27 00:45:10;;;;;;;31.40;17.82;;;;;;;0.57;71.65;100223.14;1766016;80;21433;-76
2021/04/27 00:47:38;;;;;;;28.62;17.35;;;;;;;0.56;71.70;100218.86;1767033;80;21113;-76
2021/04/27 00:50:09;;;;;;;30.12;18.55;;;;;;;0.54;71.71;100216.78;1774111;80;22107;-76
2021/04/27 00:52:37;;;;;;;33.90;18.17;;;;;;;0.50;71.72;100221.72;1784748;79;21126;-73
2021/04/27 00:55:12;;;;;;;34.60;18.00;;;;;;;0.46;71.74;100222.73;1787397;79;21196;-76
2021/04/27 00:57:41;;;;;;;26.23;16.32;;;;;;;0.45;71.78;100229.30;1768458;81;21161;-76
2021/04/27 01:00:17;;;;;;;26.50;15.48;;;;;;;0.43;71.81;100228.06;1755060;81;21245;-75
2021/04/27 01:02:49;;;;;;;25.35;14.68;;;;;;;0.40;71.81;100223.00;1761731;81;22355;-77
2021/04/27 01:05:23;;;;;;;24.87;14.38;;;;;;;0.38;71.83;100223.49;1756160;81;21143;-75
2021/04/27 01:08:08;;;;;;;23.47;13.70;;;;;;;0.38;71.81;100220.89;1776921;80;21143;-71
2021/04/27 01:11:03;;;;;;;21.02;12.85;;;;;;;0.39;71.80;100219.17;1772866;80;21166;-75
2021/04/27 01:13:36;;;;;;;22.82;13.22;;;;;;;0.40;71.77;100215.20;1778497;80;21185;-75
2021/04/27 01:16:05;;;;;;;24.37;12.85;;;;;;;0.40;71.75;100215.20;1768467;79;25776;-75
2021/04/27 01:18:33;;;;;;;20.02;12.55;;;;;;;0.41;71.75;100207.80;1741702;80;21161;-75
2021/04/27 01:21:01;;;;;;;20.82;12.00;;;;;;;0.41;71.73;100214.30;1784098;79;21235;-75
2021/04/27 01:23:53;;;;;;;18.82;11.28;;;;;;;0.43;71.74;100211.17;1758350;80;21121;-76
2021/04/27 01:26:28;;;;;;;20.40;11.20;;;;;;;0.44;71.73;100205.06;1777301;80;21434;-75
2021/04/27 01:28:56;;;;;;;25.77;15.50;;;;;;;0.45;71.68;100202.02;1773577;80;22073;-74
2021/04/27 01:31:27;;;;;;;67.03;45.55;;;;;;;0.44;71.58;100198.58;1778474;80;21093;-74
2021/04/27 01:33:56;;;;;;;61.80;42.08;;;;;;;0.42;71.56;100193.05;1769621;80;21065;-74
2021/04/27 01:36:25;;;;;;;41.00;27.25;;;;;;;0.42;71.58;100190.00;1774854;80;21347;-75
2021/04/27 01:38:55;;;;;;;35.92;23.62;;;;;;;0.40;71.50;100193.58;1757180;80;21375;-74
2021/04/27 01:41:26;;;;;;;27.22;18.17;;;;;;;0.34;71.55;100192.06;1774602;80;22063;-75
2021/04/27 01:43:56;;;;;;;18.95;12.82;;;;;;;0.29;71.63;100197.91;1772129;80;21085;-75
2021/04/27 01:46:24;;;;;;;16.87;9.70;;;;;;;0.30;71.65;100196.16;1779574;80;21114;-75
2021/04/27 01:48:51;;;;;;;16.02;9.58;;;;;;;0.32;71.70;100193.04;1771082;80;21137;-74
2021/04/27 01:51:21;;;;;;;18.37;10.35;;;;;;;0.27;71.78;100191.45;1792076;80;21144;-74
2021/04/27 01:54:08;;;;;;;21.17;11.68;;;;;;;0.26;71.82;100188.92;1768807;80;23373;-76
2021/04/27 01:56:36;;;;;;;22.05;14.05;;;;;;;0.23;71.87;100191.20;1780958;80;21085;-75
2021/04/27 01:59:05;;;;;;;24.23;14.35;;;;;;;0.21;71.93;100187.81;1752888;80;21060;-75
2021/04/27 02:01:35;;;;;;;29.02;16.60;;;;;;;0.19;72.00;100188.77;1775960;80;21616;-76
2021/04/27 02:04:04;;;;;;;29.50;16.48;;;;;;;0.15;72.02;100185.91;1774062;80;21571;-75
2021/04/27 02:07:00;;;;;;;23.90;13.95;;;;;;;0.19;72.08;100188.77;1875398;75;29057;-73
2021/04/27 02:09:28;;;;;;;20.20;11.38;;;;;;;0.13;72.06;100191.17;1843140;77;21039;-73
2021/04/27 02:12:14;;;;;;;20.40;11.70;;;;;;;0.17;72.11;100188.83;1874243;76;29045;-74
2021/04/27 02:14:44;;;;;;;18.85;11.65;;;;;;;0.11;72.17;100189.09;1828749;77;21048;-72
2021/04/27 02:17:26;;;;;;;20.00;11.65;;;;;;;0.09;72.16;100195.23;1844217;77;22065;-73
2021/04/27 02:19:54;;;;;;;17.05;10.78;;;;;;;0.06;72.18;100196.66;1822590;77;21042;-73
2021/04/27 02:22:39;;;;;;;18.98;10.78;;;;;;;0.03;72.23;100205.88;1827766;77;21411;-74
2021/04/27 02:25:24;;;;;;;20.75;11.78;;;;;;;0.00;72.37;100201.66;1798682;77;21055;-75
2021/04/27 02:27:53;;;;;;;17.37;10.68;;;;;;;0.01;72.44;100203.80;1835006;77;21046;-73
2021/04/27 02:30:23;;;;;;;19.57;11.25;;;;;;;-0.01;72.42;100203.83;1831343;77;21467;-76
2021/04/27 02:32:51;;;;;;;17.48;10.80;;;;;;;-0.02;72.48;100210.77;1838715;77;21069;-75
2021/04/27 02:35:20;;;;;;;18.20;11.48;;;;;;;-0.04;72.54;100208.70;1790424;79;21130;-74
2021/04/27 02:37:50;;;;;;;18.82;11.40;;;;;;;-0.05;72.62;100205.70;1732011;81;21143;-73
2021/04/27 02:40:27;;;;;;;24.32;12.82;;;;;;;-0.04;72.65;100211.29;1760684;80;21157;-73
2021/04/27 02:42:58;;;;;;;24.15;13.88;;;;;;;-0.04;72.73;100210.45;1822435;77;22967;-73
2021/04/27 02:45:31;;;;;;;28.13;15.03;;;;;;;-0.05;72.75;100210.91;1822239;77;21188;-73
2021/04/27 02:48:25;;;;;;;27.45;15.13;;;;;;;-0.07;72.83;100211.42;1826804;77;21118;-73
2021/04/27 02:51:08;;;;;;;26.68;14.73;;;;;;;-0.04;72.95;100207.85;1872055;76;28957;-73
2021/04/27 02:53:38;;;;;;;26.15;15.50;;;;;;;-0.11;73.04;100205.09;1822761;77;21105;-73
2021/04/27 02:56:05;;;;;;;24.37;15.50;;;;;;;-0.11;73.07;100202.03;1832184;77;22474;-74
2021/04/27 02:58:33;;;;;;;25.35;16.32;;;;;;;-0.11;73.16;100198.14;1844675;77;21050;-73
2021/04/27 03:01:01;;;;;;;28.80;16.75;;;;;;;-0.10;73.21;100198.53;1841907;77;21132;-73
2021/04/27 03:03:29;;;;;;;27.25;16.85;;;;;;;-0.10;73.28;100201.12;1842117;77;21411;-73
2021/04/27 03:05:56;;;;;;;29.20;17.45;;;;;;;-0.10;73.29;100194.64;1835771;77;21170;-74
2021/04/27 03:08:24;;;;;;;27.85;16.62;;;;;;;-0.10;73.33;100197.23;1820705;77;22479;-74
2021/04/27 03:10:52;;;;;;;27.73;17.20;;;;;;;-0.10;73.41;100199.83;1803838;77;21177;-74
2021/04/27 03:13:21;;;;;;;26.27;16.17;;;;;;;-0.10;73.55;100208.08;1819783;77;21598;-73
2021/04/27 03:15:50;;;;;;;27.05;15.70;;;;;;;-0.12;73.68;100210.73;1810571;77;21458;-73
2021/04/27 03:18:18;;;;;;;23.18;15.15;;;;;;;-0.12;73.84;100215.08;1824226;77;21118;-69
2021/04/27 03:20:46;;;;;;;19.05;13.05;;;;;;;-0.14;73.90;100210.41;1835510;77;22054;-70
2021/04/27 03:23:30;;;;;;;23.07;14.30;;;;;;;-0.08;73.99;100207.59;1866325;76;29263;-72
2021/04/27 03:25:58;;;;;;;22.48;12.98;;;;;;;-0.11;74.06;100207.69;1813145;77;21049;-71
2021/04/27 03:28:35;;;;;;;28.60;14.90;;;;;;;-0.05;74.19;100195.78;1874663;76;29532;-70
2021/04/27 03:31:05;;;;;;;26.27;15.88;;;;;;;-0.07;74.35;100201.48;1845139;77;21094;-71
2021/04/27 03:33:33;;;;;;;26.20;15.90;;;;;;;-0.02;74.54;100204.28;1786783;80;22518;-72
2021/04/27 03:36:01;;;;;;;19.50;11.75;;;;;;;0.06;74.69;100203.15;1795601;78;21137;-73
2021/04/27 03:38:29;;;;;;;20.37;12.73;;;;;;;0.13;74.83;100204.61;1792034;77;21091;-74
2021/04/27 03:40:58;;;;;;;17.82;10.90;;;;;;;0.19;74.93;100208.24;1816871;77;21162;-71
2021/04/27 03:43:29;;;;;;;16.75;9.85;;;;;;;0.24;75.03;100221.91;1812115;78;21181;-71
2021/04/27 03:45:57;;;;;;;19.17;12.18;;;;;;;0.28;75.09;100220.41;1791483;78;22070;-72
2021/04/27 03:48:24;;;;;;;18.15;10.70;;;;;;;0.32;75.13;100221.61;1794336;79;21124;-71
2021/04/27 03:51:00;;;;;;;15.93;10.00;;;;;;;0.34;75.16;100220.64;1790252;79;21193;-74
2021/04/27 03:53:37;;;;;;;15.53;9.80;;;;;;;0.42;75.22;100221.18;1863590;76;29182;-74
2021/04/27 03:56:06;;;;;;;17.15;10.43;;;;;;;0.42;75.22;100228.13;1784162;77;21493;-74
2021/04/27 03:58:33;;;;;;;16.60;10.43;;;;;;;0.46;75.21;100226.63;1848069;77;22057;-74
2021/04/27 04:01:01;;;;;;;20.95;12.25;;;;;;;0.48;75.19;100222.25;1832024;77;21648;-73
2021/04/27 04:03:29;;;;;;;22.13;12.78;;;;;;;0.50;75.19;100224.32;1827242;77;21146;-73
2021/04/27 04:05:57;;;;;;;28.60;16.00;;;;;;;0.55;75.20;100217.17;1835748;77;21625;-72
2021/04/27 04:08:56;;;;;;;30.00;17.27;;;;;;;0.64;75.21;100217.70;1887229;75;28888;-71
2021/04/27 04:11:26;;;;;;;32.53;17.87;;;;;;;0.63;75.20;100223.81;1803371;79;21601;-74
2021/04/27 04:13:54;;;;;;;31.15;18.17;;;;;;;0.66;75.21;100232.77;1824608;77;22485;-77
2021/04/27 04:16:22;;;;;;;28.32;17.80;;;;;;;0.70;75.26;100234.36;1795818;79;21173;-73
2021/04/27 04:18:50;;;;;;;23.77;13.00;;;;;;;0.73;75.24;100229.02;1826497;77;21120;-72
2021/04/27 04:21:19;;;;;;;29.35;16.52;;;;;;;0.78;75.28;100238.80;1764347;79;21136;-71
2021/04/27 04:23:52;;;;;;;32.17;17.70;;;;;;;0.81;75.30;100225.66;1817352;77;21338;-72
2021/04/27 04:26:21;;;;;;;33.10;17.73;;;;;;;0.85;75.36;100229.80;1821932;78;22098;-72
2021/04/27 04:29:07;;;;;;;31.48;16.52;;;;;;;0.92;75.43;100224.75;1821962;78;21645;-71
2021/04/27 04:31:36;;;;;;;28.10;16.32;;;;;;;1.01;75.42;100219.62;1803694;78;21565;-71
2021/04/27 04:34:13;;;;;;;29.48;16.35;;;;;;;1.15;75.49;100218.09;1842862;76;29668;-76
2021/04/27 04:37:00;;;;;;;28.27;14.53;;;;;;;1.21;75.53;100220.91;1830155;78;21053;-72
2021/04/27 04:39:46;;;;;;;23.07;12.37;;;;;;;1.32;75.54;100225.64;1820940;77;22338;-71
2021/04/27 04:42:26;;;;;;;15.53;8.88;;;;;;;1.48;75.54;100226.66;1884596;76;29063;-71
2021/04/27 04:44:59;;;;;;;19.30;11.35;;;;;;;1.56;75.53;100221.97;1735374;80;21496;-73
2021/04/27 04:47:47;;;;;;;15.93;10.25;;;;;;;1.72;75.38;100216.44;1756644;81;21762;-74
2021/04/27 04:50:33;;;;;;;16.75;10.13;;;;;;;1.93;75.21;100218.97;1764145;80;21118;-73
2021/04/27 04:53:19;;;;;;;13.93;8.28;;;;;;;2.11;74.88;100219.41;1769166;81;21190;-72
2021/04/27 04:55:49;;;;;;;11.40;6.95;;;;;;;2.29;74.33;100215.09;1770524;81;21661;-71
2021/04/27 04:58:21;;;;;;;10.58;5.70;;;;;;;2.44;73.89;100218.28;1771296;81;21566;-71
2021/04/27 05:01:00;;;;;;;7.22;4.30;;;;;;;2.63;73.02;100225.21;1770354;80;22504;-71
2021/04/27 05:03:46;;;;;;;9.40;5.55;;;;;;;2.81;70.66;100226.91;1771137;81;21254;-71
2021/04/27 05:06:39;;;;;;;6.45;3.95;;;;;;;3.02;70.72;100224.99;1771503;81;21207;-72
2021/04/27 05:09:23;;;;;;;5.25;3.37;;;;;;;3.16;69.63;100227.27;1771530;80;21064;-72
2021/04/27 05:11:52;;;;;;;8.43;3.50;;;;;;;3.31;68.56;100221.73;1771420;81;21133;-72
2021/04/27 05:14:38;;;;;;;5.30;3.22;;;;;;;3.41;67.02;100229.92;1770337;80;22497;-72
2021/04/27 05:17:10;;;;;;;5.60;3.77;;;;;;;3.51;65.58;100230.29;1764287;81;21173;-72
2021/04/27 05:19:38;;;;;;;4.87;3.52;;;;;;;3.60;64.53;100228.04;1766553;80;21087;-72
2021/04/27 05:22:08;;;;;;;4.83;3.40;;;;;;;3.69;64.45;100231.94;1768995;81;21072;-72
2021/04/27 05:24:38;;;;;;;5.83;3.80;;;;;;;3.78;64.28;100232.75;1771688;80;21119;-72
2021/04/27 05:27:13;;;;;;;5.05;3.42;;;;;;;3.88;63.46;100236.55;1771353;80;22311;-72
2021/04/27 05:29:40;;;;;;;5.17;3.47;;;;;;;3.94;62.37;100236.67;1761138;81;21127;-72
2021/04/27 05:32:07;;;;;;;6.87;3.75;;;;;;;4.03;62.74;100233.55;1770188;81;21498;-72
2021/04/27 05:34:35;;;;;;;6.80;3.30;;;;;;;4.13;62.90;100228.66;1771402;81;21072;-72
2021/04/27 05:37:03;;;;;;;6.03;3.45;;;;;;;4.22;62.13;100230.77;1768556;81;21119;-73
2021/04/27 05:39:31;;;;;;;5.65;3.50;;;;;;;4.27;61.49;100230.07;1775341;80;22456;-73
2021/04/27 05:41:58;;;;;;;6.22;3.30;;;;;;;4.33;60.77;100229.70;1788780;79;21101;-74
2021/04/27 05:44:26;;;;;;;7.25;3.60;;;;;;;4.38;59.94;100234.23;1794456;79;21054;-74
2021/04/27 05:46:54;;;;;;;5.60;3.55;;;;;;;4.43;59.75;100229.56;1790506;79;21058;-72
2021/04/27 05:49:22;;;;;;;6.15;3.50;;;;;;;4.50;59.72;100224.84;1791025;79;21414;-71
2021/04/27 05:51:49;;;;;;;4.60;3.37;;;;;;;4.56;59.62;100222.73;1765900;79;22153;-71
2021/04/27 05:54:16;;;;;;;7.17;3.67;;;;;;;4.65;59.53;100225.77;1759091;81;21149;-71
2021/04/27 05:56:44;;;;;;;6.47;3.50;;;;;;;4.75;59.59;100221.22;1775686;80;21049;-72
2021/04/27 05:59:11;;;;;;;4.33;3.08;;;;;;;4.86;58.88;100226.66;1759641;80;21120;-73
2021/04/27 06:01:41;;;;;;;5.95;3.30;;;;;;;4.90;58.20;100216.84;1793056;80;21599;-74
2021/04/27 06:04:08;;;;;;;5.25;3.37;;;;;;;4.96;58.00;100218.28;1776827;80;22349;-73
2021/04/27 06:06:37;;;;;;;6.78;3.42;;;;;;;5.04;57.50;100225.22;1784728;79;21057;-75
2021/04/27 06:09:07;;;;;;;5.60;3.65;;;;;;;5.08;57.24;100224.94;1788061;80;21061;-74
2021/04/27 06:11:37;;;;;;;4.40;3.35;;;;;;;5.10;57.37;100224.38;1783708;80;21352;-75
2021/04/27 06:14:05;;;;;;;5.50;3.37;;;;;;;5.16;57.58;100227.95;1786798;80;21061;-74
2021/04/27 06:16:32;;;;;;;6.70;3.77;;;;;;;5.21;58.32;100228.13;1762601;80;22066;-76
2021/04/27 06:19:00;;;;;;;5.90;3.75;;;;;;;5.30;58.15;100228.89;1793844;78;21206;-74
2021/04/27 06:21:27;;;;;;;4.45;3.20;;;;;;;5.37;58.35;100230.21;1761115;81;21077;-72
2021/04/27 06:23:55;;;;;;;4.75;3.10;;;;;;;5.46;57.12;100239.67;1793183;80;21365;-73
2021/04/27 06:26:24;;;;;;;4.90;3.40;;;;;;;5.52;56.67;100237.16;1794520;80;21129;-73
2021/04/27 06:28:52;;;;;;;4.47;3.27;;;;;;;5.56;55.72;100233.87;1786525;79;22052;-77
2021/04/27 06:31:19;;;;;;;6.78;3.40;;;;;;;5.58;56.57;100247.72;1794039;78;21796;-74
2021/04/27 06:33:47;;;;;;;9.23;3.70;;;;;;;5.64;56.34;100239.49;1768050;80;21156;-73
2021/04/27 06:36:15;;;;;;;4.60;3.10;;;;;;;5.67;55.51;100247.16;1760017;81;21184;-70
2021/04/27 06:38:44;;;;;;;7.53;3.75;;;;;;;5.70;55.25;100233.42;1746373;80;21095;-73
2021/04/27 06:41:12;;;;;;;6.08;3.50;;;;;;;5.75;55.18;100242.30;1790656;80;22058;-74
2021/04/27 06:43:40;;;;;;;5.75;3.87;;;;;;;5.84;55.28;100243.04;1787123;80;21165;-73
2021/04/27 06:46:07;;;;;;;9.55;3.80;;;;;;;5.90;55.18;100244.45;1787798;80;21165;-73
2021/04/27 06:48:35;;;;;;;5.60;3.22;;;;;;;5.93;54.50;100236.42;1786877;80;21146;-73
2021/04/27 06:51:04;;;;;;;4.72;3.52;;;;;;;5.96;53.95;100238.84;1786036;80;21607;-72
2021/04/27 06:53:33;;;;;;;5.72;3.80;;;;;;;6.08;54.14;100244.65;1758289;80;22072;-75
2021/04/27 06:56:03;;;;;;;6.12;4.00;;;;;;;6.21;53.87;100247.33;1787324;80;21585;-73
2021/04/27 06:58:31;;;;;;;5.03;3.42;;;;;;;6.26;53.51;100250.48;1744198;82;21181;-74
2021/04/27 07:00:58;;;;;;;5.65;3.75;;;;;;;6.30;53.27;100244.13;1749013;81;21202;-72
2021/04/27 07:03:26;;;;;;;7.30;3.50;;;;;;;6.31;52.74;100247.12;1768667;80;21125;-70
2021/04/27 07:05:54;;;;;;;5.03;3.15;;;;;;;6.35;52.97;100252.53;1750017;81;22090;-73
2021/04/27 07:08:22;;;;;;;5.40;3.20;;;;;;;6.38;51.33;100254.98;1754299;80;21190;-76
2021/04/27 07:10:54;;;;;;;4.05;3.08;;;;;;;6.42;51.34;100253.83;1788118;80;21495;-77
2021/04/27 07:13:21;;;;;;;4.08;2.95;;;;;;;6.48;49.60;100241.64;1748180;81;21236;-75
2021/04/27 07:15:49;;;;;;;4.75;3.33;;;;;;;6.55;50.04;100249.94;1756891;80;21165;-73
2021/04/27 07:18:16;;;;;;;4.12;2.95;;;;;;;6.65;50.40;100251.02;1755593;81;23052;-70
2021/04/27 07:20:45;;;;;;;4.83;3.12;;;;;;;6.72;49.88;100241.81;1772958;80;21141;-71
2021/04/27 07:23:13;;;;;;;5.17;2.80;;;;;;;6.81;49.80;100243.84;1770144;80;21176;-74
2021/04/27 07:25:42;;;;;;;4.72;2.77;;;;;;;6.91;49.98;100252.42;1782607;80;21217;-73
2021/04/27 07:28:09;;;;;;;4.12;2.50;;;;;;;7.01;48.65;100243.83;1766104;80;21407;-72
2021/04/27 07:30:37;;;;;;;4.10;2.90;;;;;;;7.08;48.32;100239.02;1750954;80;22126;-72
2021/04/27 07:33:05;;;;;;;3.30;2.67;;;;;;;7.15;46.97;100246.86;1780787;80;21201;-73
2021/04/27 07:35:33;;;;;;;4.80;2.40;;;;;;;7.16;47.37;100244.59;1776395;80;21188;-73
2021/04/27 07:38:02;;;;;;;4.58;2.77;;;;;;;7.20;46.75;100250.00;1776763;80;21193;-74
2021/04/27 07:40:31;;;;;;;3.70;2.40;;;;;;;7.27;46.38;100242.56;1773095;80;21216;-74
2021/04/27 07:42:59;;;;;;;4.95;2.70;;;;;;;7.27;45.88;100238.14;1754356;79;22064;-77
2021/04/27 07:45:30;;;;;;;4.00;2.60;;;;;;;7.29;46.09;100234.94;1749668;81;21183;-75
2021/04/27 07:47:55;;;;;;;3.87;2.72;;;;;;;7.33;46.22;100240.81;1747309;81;21169;-77
2021/04/27 07:50:23;;;;;;;4.28;2.40;;;;;;;7.37;46.40;100240.52;1750040;80;21147;-75
2021/04/27 07:52:51;;;;;;;3.98;2.30;;;;;;;7.42;44.95;100243.65;1744929;81;21171;-74
2021/04/27 07:55:18;;;;;;;5.47;3.05;;;;;;;7.45;44.58;100230.32;1747421;81;21786;-75
2021/04/27 07:57:45;;;;;;;4.40;2.70;;;;;;;7.53;44.79;100232.88;1743368;80;21195;-75
2021/04/27 08:00:15;;;;;;;4.58;2.83;;;;;;;7.63;44.41;100231.32;1745808;80;21179;-71
2021/04/27 08:02:42;;;;;;;3.58;2.35;;;;;;;7.73;44.49;100227.10;1742006;81;21215;-77
2021/04/27 08:05:11;;;;;;;4.17;3.10;;;;;;;7.79;44.65;100235.02;1745637;81;21243;-77
2021/04/27 08:07:40;;;;;;;4.03;2.40;;;;;;;7.85;45.60;100223.61;1734712;80;21943;-72
2021/04/27 08:10:09;;;;;;;4.75;3.00;;;;;;;7.95;45.69;100219.84;1726792;81;21131;-75
2021/04/27 08:12:36;;;;;;;5.20;2.75;;;;;;;8.00;45.75;100222.50;1735593;81;21206;-77
2021/04/27 08:15:06;;;;;;;3.92;2.58;;;;;;;8.08;44.70;100225.91;1743214;81;21678;-77
2021/04/27 08:17:33;;;;;;;4.50;2.47;;;;;;;8.15;45.23;100221.06;1734609;81;21522;-78
2021/04/27 08:20:03;;;;;;;5.35;2.80;;;;;;;8.25;46.04;100222.91;1708808;82;21633;-76
2021/04/27 08:22:32;;;;;;;4.95;2.80;;;;;;;8.33;44.43;100213.99;1726611;81;21167;-77
2021/04/27 08:25:00;;;;;;;4.45;2.83;;;;;;;8.41;45.46;100216.11;1745714;81;21178;-76
2021/04/27 08:27:31;;;;;;;5.15;2.50;;;;;;;8.57;45.77;100208.75;1744041;81;21525;-76
2021/04/27 08:29:59;;;;;;;5.35;3.17;;;;;;;8.74;45.33;100204.03;1740417;80;21687;-75
2021/04/27 08:32:27;;;;;;;5.47;3.15;;;;;;;8.95;46.16;100202.42;1748698;81;22475;-75
2021/04/27 08:34:54;;;;;;;3.87;2.37;;;;;;;9.19;46.14;100203.69;1750372;80;21183;-78
2021/04/27 08:37:23;;;;;;;4.05;2.77;;;;;;;9.37;43.57;100196.17;1742437;80;21148;-74
2021/04/27 08:39:50;;;;;;;5.17;2.92;;;;;;;9.47;44.23;100190.55;1750655;81;21220;-78
2021/04/27 08:42:18;;;;;;;4.03;2.40;;;;;;;9.55;44.15;100187.29;1754931;79;21590;-74
2021/04/27 08:44:45;;;;;;;4.37;3.00;;;;;;;9.67;43.71;100188.98;1746785;81;22051;-76
2021/04/27 08:47:13;;;;;;;14.53;9.80;;;;;;;9.69;42.02;100175.20;1755109;81;21249;-76
2021/04/27 08:49:40;;;;;;;4.53;2.70;;;;;;;9.59;42.48;100180.36;1742802;81;21189;-75
2021/04/27 08:52:08;;;;;;;6.28;2.30;;;;;;;9.49;40.42;100175.92;1753331;81;21145;-77
2021/04/27 08:54:36;;;;;;;5.95;2.90;;;;;;;9.41;41.11;100179.98;1747940;81;21200;-77
2021/04/27 08:57:04;;;;;;;5.83;3.02;;;;;;;9.31;40.77;100169.80;1751725;80;22054;-73
2021/04/27 08:59:33;;;;;;;3.22;2.40;;;;;;;9.27;41.58;100168.84;1754113;81;21201;-79
2021/04/27 09:02:00;;;;;;;3.12;2.40;;;;;;;9.32;41.08;100160.09;1750182;81;21175;-78
2021/04/27 09:04:50;;;;;;;4.17;2.92;;;;;;;9.40;42.65;100162.50;1784198;80;21153;-74
2021/04/27 09:07:21;;;;;;;4.92;3.62;;;;;;;9.60;43.15;100171.48;1783254;80;21144;-76
2021/04/27 09:09:54;;;;;;;5.05;3.58;;;;;;;9.71;43.19;100160.92;1777599;80;21822;-74
2021/04/27 09:12:28;;;;;;;11.40;5.53;;;;;;;9.71;43.11;100154.33;1786928;80;21176;-77
2021/04/27 09:14:57;;;;;;;9.43;6.80;;;;;;;9.79;42.65;100155.52;1786283;80;21078;-73
2021/04/27 09:17:28;;;;;;;4.90;3.00;;;;;;;9.72;42.00;100154.68;1787537;80;21052;-74
2021/04/27 09:19:59;;;;;;;4.12;2.50;;;;;;;9.65;42.19;100152.20;1784190;80;21112;-74
2021/04/27 09:22:29;;;;;;;8.00;3.20;;;;;;;9.69;42.15;100145.70;1786500;78;22226;-74
2021/04/27 09:25:06;;;;;;;16.62;13.03;;;;;;;9.86;41.38;100127.70;1782134;78;21093;-74
2021/04/27 09:27:42;;;;;;;5.78;3.12;;;;;;;10.12;41.51;100134.33;1774057;78;21105;-73
2021/04/27 09:30:22;;;;;;;4.67;2.30;;;;;;;10.28;41.14;100143.20;1783328;78;21555;-74
2021/04/27 09:32:59;;;;;;;4.47;2.60;;;;;;;10.30;39.08;100138.63;1787771;80;21145;-74
2021/04/27 09:35:45;;;;;;;3.85;2.70;;;;;;;10.21;39.25;100136.22;1789066;80;22148;-73
2021/04/27 09:38:27;;;;;;;4.25;2.55;;;;;;;10.08;38.81;100125.00;1758743;80;21157;-72
2021/04/27 09:41:05;;;;;;;4.42;2.67;;;;;;;9.96;40.76;100132.59;1778519;80;21464;-72
2021/04/27 09:43:39;;;;;;;3.62;2.40;;;;;;;10.00;40.78;100131.38;1786409;78;21433;-74
2021/04/27 09:46:15;;;;;;;16.82;2.80;;;;;;;10.01;39.77;100133.88;1763857;80;21050;-75
2021/04/27 09:48:58;;;;;;;6.87;3.17;;;;;;;9.90;39.68;100134.40;1743945;81;22106;-73
2021/04/27 09:51:33;;;;;;;4.12;2.67;;;;;;;9.79;39.88;100133.94;1770817;80;21094;-73
2021/04/27 09:54:10;;;;;;;3.17;2.33;;;;;;;9.72;39.91;100135.38;1735803;82;21155;-74
2021/04/27 09:59:29;;;;;;;3.65;2.42;;;;;;;9.56;40.76;100135.78;1832339;75;27667;-74
2021/04/27 10:02:02;;;;;;;4.42;2.70;;;;;;;9.49;40.45;100141.17;1837309;77;21139;-74
2021/04/27 10:04:30;;;;;;;3.22;2.58;;;;;;;9.46;40.94;100132.20;1827526;78;21881;-75
2021/04/27 10:07:02;;;;;;;6.55;2.80;;;;;;;9.44;40.91;100132.77;1820491;78;21159;-73
2021/04/27 10:09:32;;;;;;;5.58;2.65;;;;;;;9.45;40.94;100135.28;1828955;78;21115;-75
2021/04/27 10:12:05;;;;;;;3.03;2.27;;;;;;;9.51;40.23;100128.70;1808735;78;21067;-74
2021/04/27 10:14:35;;;;;;;3.58;2.60;;;;;;;9.56;40.68;100132.30;1809216;78;21222;-73
2021/04/27 10:17:03;;;;;;;4.05;2.40;;;;;;;9.57;40.57;100124.27;1826239;78;22544;-75
2021/04/27 10:19:30;;;;;;;4.00;2.70;;;;;;;9.60;40.58;100127.97;1841315;78;21115;-76
2021/04/27 10:22:12;;;;;;;3.62;2.40;;;;;;;9.64;40.93;100135.98;1814663;78;21538;-76
2021/04/27 10:24:40;;;;;;;3.10;2.37;;;;;;;9.75;39.45;100115.37;1816658;78;21224;-77
2021/04/27 10:27:11;;;;;;;4.08;2.60;;;;;;;9.91;39.55;100118.92;1812077;77;21134;-74
2021/04/27 10:29:38;;;;;;;3.10;2.02;;;;;;;10.02;38.67;100109.66;1765885;80;23324;-75
2021/04/27 10:32:26;;;;;;;4.50;2.30;;;;;;;10.00;39.67;100114.22;1757959;80;21500;-74
2021/04/27 10:35:05;;;;;;;3.77;2.55;;;;;;;10.00;38.65;100112.91;1760782;79;21030;-76
2021/04/27 10:38:03;;;;;;;3.42;2.30;;;;;;;10.00;40.01;100108.95;1756539;79;21079;-81
2021/04/27 10:40:48;;;;;;;4.33;2.37;;;;;;;10.09;40.06;100110.00;1754154;80;21120;-74
2021/04/27 10:43:28;;;;;;;4.35;2.60;;;;;;;10.19;39.81;100111.77;1747410;80;22204;-75
2021/04/27 10:45:59;;;;;;;4.08;2.50;;;;;;;10.20;38.37;100112.11;1743035;82;21109;-76
2021/04/27 10:48:40;;;;;;;6.28;2.70;;;;;;;10.18;39.21;100115.37;1740103;82;21120;-75
2021/04/27 10:51:27;;;;;;;4.83;2.72;;;;;;;10.21;38.59;100108.99;1738148;82;21136;-78
2021/04/27 10:54:21;;;;;;;5.20;2.42;;;;;;;10.16;39.22;100104.11;1751083;82;21060;-79
2021/04/27 10:57:06;;;;;;;5.30;2.77;;;;;;;10.14;39.27;100106.52;1747444;82;22852;-78
2021/04/27 10:59:58;;;;;;;4.28;2.35;;;;;;;10.15;39.62;100104.23;1750970;80;21076;-78
2021/04/27 11:02:29;;;;;;;3.52;2.33;;;;;;;10.15;39.06;100105.55;1745380;80;21069;-75
2021/04/27 11:05:03;;;;;;;4.10;2.50;;;;;;;10.11;39.33;100098.34;1701123;82;21074;-77
2021/04/27 11:07:33;;;;;;;5.83;2.52;;;;;;;10.11;39.30;100098.34;1745402;80;21587;-76
2021/04/27 11:10:21;;;;;;;3.50;2.30;;;;;;;10.11;40.25;100093.55;1750117;80;21839;-79
2021/04/27 11:12:58;;;;;;;4.40;2.58;;;;;;;10.14;39.98;100094.64;1722341;82;21551;-80
2021/04/27 11:15:31;;;;;;;3.40;2.27;;;;;;;10.14;39.43;100086.25;1720716;82;21061;-78
2021/04/27 11:18:11;;;;;;;3.75;2.90;;;;;;;10.10;38.82;100090.08;1727989;80;21564;-77
2021/04/27 11:20:59;;;;;;;3.60;2.40;;;;;;;10.03;39.54;100092.86;1731084;82;21143;-75
2021/04/27 11:23:39;;;;;;;4.58;2.70;;;;;;;10.01;39.34;100085.55;1731129;82;21894;-76
2021/04/27 11:26:36;;;;;;;4.42;2.75;;;;;;;10.01;40.29;100082.91;1741250;80;21082;-76
2021/04/27 11:29:08;;;;;;;7.20;6.05;;;;;;;10.06;40.18;100080.75;1736067;82;21085;-79
2021/04/27 11:32:15;;;;;;;27.70;20.30;;;;;;;10.09;40.13;100082.30;1736561;81;21101;-77
2021/04/27 11:35:14;;;;;;;5.85;3.62;;;;;;;10.03;39.94;100079.66;1733121;80;21197;-77
2021/04/27 11:37:55;;;;;;;5.83;2.75;;;;;;;9.96;40.33;100088.58;1742279;82;21888;-80
2021/04/27 11:40:33;;;;;;;4.80;2.62;;;;;;;9.95;40.51;100088.71;1727062;82;21380;-77
2021/04/27 11:43:05;;;;;;;4.50;2.90;;;;;;;9.90;40.42;100090.88;1744674;82;21129;-76
2021/04/27 11:45:48;;;;;;;5.42;2.90;;;;;;;9.79;42.87;100099.66;1872841;76;22690;-76
2021/04/27 11:48:21;;;;;;;6.00;2.92;;;;;;;9.55;43.38;100106.39;1816721;79;21511;-74
2021/04/27 11:50:50;;;;;;;3.67;2.98;;;;;;;9.26;44.71;100103.41;1834206;77;21877;-77